Matthew — WQZ3847 — position and weather

sailwx.info

Track history (hours):
 
Tides and Currents Weather Stations Pressure Air Temp Water Temp Dewpoint Dewpoint Depression Visibility Wind Speed Wind Dir Waves Ship Positions

Matthew

Owner: C & C BOATS INC, HUNTINGTON BEACH, CA. More information available from US FCC via Universal Licensing System and Coast Guard Vessel Documentation Center.

Last reported at 2017-Sep-25 14:31 UTC. Time now 2017-Sep-25 14:59 UTC.
Position N 34°20' W 119°33'.

Length 27 m.

Type: Passenger vessel. MMSI: 366952950.

Date/timePositionNaut miles runAvg speedWind from/ knotsBaromVisibWave heightAir tempDewpointWater temp
2017-Sep-25 14:31N 34°20' W 119°33'3 5.1
2017-Sep-25 13:58N 34°23' W 119°31'0 0.6
2017-Sep-25 13:21N 34°23' W 119°30'1 0.1
2017-Sep-25 08:54N 34°23' W 119°30'0 0.0
2017-Sep-25 01:57N 34°23' W 119°30'4 6.4
2017-Sep-25 01:23N 34°20' W 119°33'4 4.9
2017-Sep-25 00:40N 34°23' W 119°30'0 0.0
2017-Sep-24 21:54N 34°23' W 119°30'3 1.8
2017-Sep-24 20:17N 34°20' W 119°33'3 9.5
2017-Sep-24 19:58N 34°23' W 119°30'3 0.5
2017-Sep-24 13:43N 34°20' W 119°33'2 8.7
2017-Sep-24 13:28N 34°22' W 119°31'1 0.6
2017-Sep-24 11:38N 34°23' W 119°30'0 0.0
2017-Sep-24 07:17N 34°23' W 119°30'0 0.0
2017-Sep-24 02:25N 34°23' W 119°30'0 0.0
2017-Sep-24 01:25N 34°23' W 119°30'2 3.5
2017-Sep-24 00:58N 34°22' W 119°32'2 3.5
2017-Sep-24 00:29N 34°23' W 119°30'3 1.1
2017-Sep-23 21:57N 34°21' W 119°32'1 1.2
2017-Sep-23 20:48N 34°22' W 119°31'1 3.1
2017-Sep-23 20:22N 34°23' W 119°30'6 9.0
2017-Sep-23 19:46N 34°19' W 119°26'5 0.1
2017-Sep-22 01:51N 34°23' W 119°30'1 0.7
2017-Sep-22 00:59N 34°23' W 119°30'1 0.3
2017-Sep-21 22:47N 34°23' W 119°30'1 1.5
2017-Sep-21 22:25N 34°23' W 119°30'3 5.6
2017-Sep-21 21:52N 34°20' W 119°33'0 0.0
2017-Sep-21 21:27N 34°20' W 119°33'0 0.0
2017-Sep-21 20:52N 34°20' W 119°33'0 0.0
2017-Sep-21 20:30N 34°20' W 119°33'0 0.0
2017-Sep-21 19:47N 34°20' W 119°33'3 8.2
2017-Sep-21 19:24N 34°23' W 119°30'3 1.6
2017-Sep-21 17:22N 34°20' W 119°33'3 2.9
2017-Sep-21 16:21N 34°23' W 119°30'4 6.7
2017-Sep-21 15:50N 34°20' W 119°33'1 1.5
2017-Sep-21 15:26N 34°20' W 119°33'3 5.1
2017-Sep-21 14:51N 34°23' W 119°30'1 1.2
2017-Sep-21 14:23N 34°23' W 119°30'4 5.7
2017-Sep-21 13:44N 34°20' W 119°33'312.0
2017-Sep-21 13:28N 34°23' W 119°31'1 0.5
2017-Sep-21 12:15N 34°23' W 119°30'0 0.0
2017-Sep-21 11:55N 34°23' W 119°30'0 0.0
2017-Sep-21 09:58N 34°23' W 119°30'0 0.0
2017-Sep-21 07:13N 34°23' W 119°30'0 0.0
2017-Sep-21 04:27N 34°23' W 119°30'0 0.0
2017-Sep-21 02:03N 34°23' W 119°30'1 7.9
2017-Sep-21 01:58N 34°23' W 119°30'0 0.2
2017-Sep-21 01:20N 34°23' W 119°30'2 1.0
2017-Sep-20 23:08N 34°21' W 119°32'214.7
2017-Sep-20 23:00N 34°23' W 119°31'0 0.1
2017-Sep-20 22:07N 34°23' W 119°30'213.9
2017-Sep-20 21:57N 34°21' W 119°32'1 0.5
2017-Sep-20 20:41N 34°20' W 119°33'0 0.0
2017-Sep-20 15:18N 34°20' W 119°33'310.9
2017-Sep-20 14:59N 34°23' W 119°30'0 0.0
2017-Sep-20 14:01N 34°23' W 119°30'1 1.9
2017-Sep-20 13:29N 34°22' W 119°31'1 0.5
2017-Sep-20 11:21N 34°23' W 119°30'0 0.0
2017-Sep-20 09:19N 34°23' W 119°30'0 0.0
2017-Sep-20 07:03N 34°23' W 119°30'0 0.0
2017-Sep-20 06:39N 34°23' W 119°30'0 0.0
2017-Sep-20 05:27N 34°23' W 119°30'0 0.0
2017-Sep-20 02:10N 34°23' W 119°30'1 0.7
2017-Sep-20 01:14N 34°23' W 119°30'2 0.7
2017-Sep-19 22:35N 34°21' W 119°32'115.2
2017-Sep-19 22:30N 34°23' W 119°31'0 0.1
2017-Sep-19 14:02N 34°23' W 119°30'0 0.0
2017-Sep-19 13:17N 34°23' W 119°30'1 0.3
2017-Sep-19 11:15N 34°23' W 119°30'0 0.0
2017-Sep-19 04:09N 34°23' W 119°30'0 0.0
2017-Sep-19 04:00N 34°23' W 119°30'0 0.0
2017-Sep-19 02:05N 34°23' W 119°30'0 2.3
2017-Sep-19 02:01N 34°23' W 119°30'2 3.4
2017-Sep-19 01:21N 34°21' W 119°32'0 0.2
2017-Sep-18 22:29N 34°21' W 119°32'0 0.1
2017-Sep-18 18:57N 34°20' W 119°33'1 0.3
2017-Sep-18 16:58N 34°20' W 119°33'0 0.1
2017-Sep-18 15:26N 34°20' W 119°33'0 0.3
2017-Sep-18 14:38N 34°20' W 119°33'2 7.1
2017-Sep-18 14:24N 34°22' W 119°32'0 0.6
2017-Sep-18 13:58N 34°22' W 119°32'2 0.1
2017-Sep-18 01:37N 34°23' W 119°30'1 5.1
2017-Sep-18 01:30N 34°23' W 119°31'0 0.1
2017-Sep-17 20:58N 34°23' W 119°30'0 0.0
2017-Sep-17 20:23N 34°23' W 119°30'1 2.3
2017-Sep-17 19:48N 34°22' W 119°31'3 9.0
2017-Sep-17 19:27N 34°19' W 119°29'714.9
2017-Sep-17 18:58N 34°16' W 119°21'5 1.5
2017-Sep-17 15:46N 34°14' W 119°16'0 0.0
2017-Sep-17 15:12N 34°14' W 119°16'1 3.8
2017-Sep-17 15:00N 34°14' W 119°17'713.5
2017-Sep-17 14:31N 34°18' W 119°24'815.1
2017-Sep-17 13:59N 34°23' W 119°30'0 0.6
2017-Sep-17 13:25N 34°23' W 119°31'1 0.1
2017-Sep-17 07:56N 34°23' W 119°30'0 0.0
2017-Sep-17 07:29N 34°23' W 119°30'0 0.0
2017-Sep-17 04:05N 34°23' W 119°30'0 0.0
2017-Sep-17 02:05N 34°23' W 119°30'0 0.7
2017-Sep-17 02:00N 34°23' W 119°30'2 2.7
2017-Sep-17 01:23N 34°22' W 119°32'1 3.7
2017-Sep-17 00:59N 34°20' W 119°33'1 0.2
2017-Sep-16 17:27N 34°22' W 119°32'1 0.5
2017-Sep-16 14:59N 34°23' W 119°31'1 0.8
2017-Sep-16 14:20N 34°23' W 119°30'0 0.0
2017-Sep-16 13:25N 34°23' W 119°30'1 0.3
2017-Sep-16 11:06N 34°23' W 119°30'0 0.0
2017-Sep-16 10:51N 34°23' W 119°30'0 0.0
2017-Sep-16 10:28N 34°23' W 119°30'2 0.2
2017-Sep-16 01:19N 34°21' W 119°32'0 1.5
2017-Sep-16 01:00N 34°21' W 119°32'1 0.3
2017-Sep-15 22:31N 34°20' W 119°33'0 0.1
2017-Sep-15 22:23N 34°20' W 119°33'1 3.3
2017-Sep-15 21:59N 34°22' W 119°32'1 0.4
2017-Sep-15 20:35N 34°21' W 119°32'211.1
2017-Sep-15 20:22N 34°23' W 119°30'410.2
2017-Sep-15 20:00N 34°20' W 119°33'1 0.5
2017-Sep-15 18:45N 34°20' W 119°33'310.8
2017-Sep-15 18:27N 34°23' W 119°30'1 0.6
2017-Sep-15 17:29N 34°23' W 119°30'4 7.5
2017-Sep-15 16:59N 34°20' W 119°33'0 0.3
2017-Sep-15 16:30N 34°20' W 119°33'4 6.5
2017-Sep-15 15:56N 34°23' W 119°30'1 1.2
2017-Sep-15 15:27N 34°23' W 119°30'0 0.1
2017-Sep-15 14:54N 34°23' W 119°30'  
Track history (hours):
 
Tides and Currents Weather Stations Pressure Air Temp Water Temp Dewpoint Dewpoint Depression Visibility Wind Speed Wind Dir Waves Ship Positions

Matthew

Owner: C & C BOATS INC, HUNTINGTON BEACH, CA. More information available from US FCC via Universal Licensing System and Coast Guard Vessel Documentation Center.

Last reported at 2017-Sep-25 14:31 UTC. Time now 2017-Sep-25 14:59 UTC.
Position N 34°20' W 119°33'.

Length 27 m.

Type: Passenger vessel. MMSI: 366952950.

Date/timePositionNaut miles runAvg speedWind from/ knotsBaromVisibWave heightAir tempDewpointWater temp
2017-Sep-25 14:31N 34°20' W 119°33'3 5.1
2017-Sep-25 13:58N 34°23' W 119°31'0 0.6
2017-Sep-25 13:21N 34°23' W 119°30'1 0.1
2017-Sep-25 08:54N 34°23' W 119°30'0 0.0
2017-Sep-25 01:57N 34°23' W 119°30'4 6.4
2017-Sep-25 01:23N 34°20' W 119°33'4 4.9
2017-Sep-25 00:40N 34°23' W 119°30'0 0.0
2017-Sep-24 21:54N 34°23' W 119°30'3 1.8
2017-Sep-24 20:17N 34°20' W 119°33'3 9.5
2017-Sep-24 19:58N 34°23' W 119°30'3 0.5
2017-Sep-24 13:43N 34°20' W 119°33'2 8.7
2017-Sep-24 13:28N 34°22' W 119°31'1 0.6
2017-Sep-24 11:38N 34°23' W 119°30'0 0.0
2017-Sep-24 07:17N 34°23' W 119°30'0 0.0
2017-Sep-24 02:25N 34°23' W 119°30'0 0.0
2017-Sep-24 01:25N 34°23' W 119°30'2 3.5
2017-Sep-24 00:58N 34°22' W 119°32'2 3.5
2017-Sep-24 00:29N 34°23' W 119°30'3 1.1
2017-Sep-23 21:57N 34°21' W 119°32'1 1.2
2017-Sep-23 20:48N 34°22' W 119°31'1 3.1
2017-Sep-23 20:22N 34°23' W 119°30'6 9.0
2017-Sep-23 19:46N 34°19' W 119°26'5 0.1
2017-Sep-22 01:51N 34°23' W 119°30'1 0.7
2017-Sep-22 00:59N 34°23' W 119°30'1 0.3
2017-Sep-21 22:47N 34°23' W 119°30'1 1.5
2017-Sep-21 22:25N 34°23' W 119°30'3 5.6
2017-Sep-21 21:52N 34°20' W 119°33'0 0.0
2017-Sep-21 21:27N 34°20' W 119°33'0 0.0
2017-Sep-21 20:52N 34°20' W 119°33'0 0.0
2017-Sep-21 20:30N 34°20' W 119°33'0 0.0
2017-Sep-21 19:47N 34°20' W 119°33'3 8.2
2017-Sep-21 19:24N 34°23' W 119°30'3 1.6
2017-Sep-21 17:22N 34°20' W 119°33'3 2.9
2017-Sep-21 16:21N 34°23' W 119°30'4 6.7
2017-Sep-21 15:50N 34°20' W 119°33'1 1.5
2017-Sep-21 15:26N 34°20' W 119°33'3 5.1
2017-Sep-21 14:51N 34°23' W 119°30'1 1.2
2017-Sep-21 14:23N 34°23' W 119°30'4 5.7
2017-Sep-21 13:44N 34°20' W 119°33'312.0
2017-Sep-21 13:28N 34°23' W 119°31'1 0.5
2017-Sep-21 12:15N 34°23' W 119°30'0 0.0
2017-Sep-21 11:55N 34°23' W 119°30'0 0.0
2017-Sep-21 09:58N 34°23' W 119°30'0 0.0
2017-Sep-21 07:13N 34°23' W 119°30'0 0.0
2017-Sep-21 04:27N 34°23' W 119°30'0 0.0
2017-Sep-21 02:03N 34°23' W 119°30'1 7.9
2017-Sep-21 01:58N 34°23' W 119°30'0 0.2
2017-Sep-21 01:20N 34°23' W 119°30'2 1.0
2017-Sep-20 23:08N 34°21' W 119°32'214.7
2017-Sep-20 23:00N 34°23' W 119°31'0 0.1
2017-Sep-20 22:07N 34°23' W 119°30'213.9
2017-Sep-20 21:57N 34°21' W 119°32'1 0.5
2017-Sep-20 20:41N 34°20' W 119°33'0 0.0
2017-Sep-20 15:18N 34°20' W 119°33'310.9
2017-Sep-20 14:59N 34°23' W 119°30'0 0.0
2017-Sep-20 14:01N 34°23' W 119°30'1 1.9
2017-Sep-20 13:29N 34°22' W 119°31'1 0.5
2017-Sep-20 11:21N 34°23' W 119°30'0 0.0
2017-Sep-20 09:19N 34°23' W 119°30'0 0.0
2017-Sep-20 07:03N 34°23' W 119°30'0 0.0
2017-Sep-20 06:39N 34°23' W 119°30'0 0.0
2017-Sep-20 05:27N 34°23' W 119°30'0 0.0
2017-Sep-20 02:10N 34°23' W 119°30'1 0.7
2017-Sep-20 01:14N 34°23' W 119°30'2 0.7
2017-Sep-19 22:35N 34°21' W 119°32'115.2
2017-Sep-19 22:30N 34°23' W 119°31'0 0.1
2017-Sep-19 14:02N 34°23' W 119°30'0 0.0
2017-Sep-19 13:17N 34°23' W 119°30'1 0.3
2017-Sep-19 11:15N 34°23' W 119°30'0 0.0
2017-Sep-19 04:09N 34°23' W 119°30'0 0.0
2017-Sep-19 04:00N 34°23' W 119°30'0 0.0
2017-Sep-19 02:05N 34°23' W 119°30'0 2.3
2017-Sep-19 02:01N 34°23' W 119°30'2 3.4
2017-Sep-19 01:21N 34°21' W 119°32'0 0.2
2017-Sep-18 22:29N 34°21' W 119°32'0 0.1
2017-Sep-18 18:57N 34°20' W 119°33'1 0.3
2017-Sep-18 16:58N 34°20' W 119°33'0 0.1
2017-Sep-18 15:26N 34°20' W 119°33'0 0.3
2017-Sep-18 14:38N 34°20' W 119°33'2 7.1
2017-Sep-18 14:24N 34°22' W 119°32'0 0.6
2017-Sep-18 13:58N 34°22' W 119°32'2 0.1
2017-Sep-18 01:37N 34°23' W 119°30'1 5.1
2017-Sep-18 01:30N 34°23' W 119°31'0 0.1
2017-Sep-17 20:58N 34°23' W 119°30'0 0.0
2017-Sep-17 20:23N 34°23' W 119°30'1 2.3
2017-Sep-17 19:48N 34°22' W 119°31'3 9.0
2017-Sep-17 19:27N 34°19' W 119°29'714.9
2017-Sep-17 18:58N 34°16' W 119°21'5 1.5
2017-Sep-17 15:46N 34°14' W 119°16'0 0.0
2017-Sep-17 15:12N 34°14' W 119°16'1 3.8
2017-Sep-17 15:00N 34°14' W 119°17'713.5
2017-Sep-17 14:31N 34°18' W 119°24'815.1
2017-Sep-17 13:59N 34°23' W 119°30'0 0.6
2017-Sep-17 13:25N 34°23' W 119°31'1 0.1
2017-Sep-17 07:56N 34°23' W 119°30'0 0.0
2017-Sep-17 07:29N 34°23' W 119°30'0 0.0
2017-Sep-17 04:05N 34°23' W 119°30'0 0.0
2017-Sep-17 02:05N 34°23' W 119°30'0 0.7
2017-Sep-17 02:00N 34°23' W 119°30'2 2.7
2017-Sep-17 01:23N 34°22' W 119°32'1 3.7
2017-Sep-17 00:59N 34°20' W 119°33'1 0.2
2017-Sep-16 17:27N 34°22' W 119°32'1 0.5
2017-Sep-16 14:59N 34°23' W 119°31'1 0.8
2017-Sep-16 14:20N 34°23' W 119°30'0 0.0
2017-Sep-16 13:25N 34°23' W 119°30'1 0.3
2017-Sep-16 11:06N 34°23' W 119°30'0 0.0
2017-Sep-16 10:51N 34°23' W 119°30'0 0.0
2017-Sep-16 10:28N 34°23' W 119°30'2 0.2
2017-Sep-16 01:19N 34°21' W 119°32'0 1.5
2017-Sep-16 01:00N 34°21' W 119°32'1 0.3
2017-Sep-15 22:31N 34°20' W 119°33'0 0.1
2017-Sep-15 22:23N 34°20' W 119°33'1 3.3
2017-Sep-15 21:59N 34°22' W 119°32'1 0.4
2017-Sep-15 20:35N 34°21' W 119°32'211.1
2017-Sep-15 20:22N 34°23' W 119°30'410.2
2017-Sep-15 20:00N 34°20' W 119°33'1 0.5
2017-Sep-15 18:45N 34°20' W 119°33'310.8
2017-Sep-15 18:27N 34°23' W 119°30'1 0.6
2017-Sep-15 17:29N 34°23' W 119°30'4 7.5
2017-Sep-15 16:59N 34°20' W 119°33'0 0.3
2017-Sep-15 16:30N 34°20' W 119°33'4 6.5
2017-Sep-15 15:56N 34°23' W 119°30'1 1.2
2017-Sep-15 15:27N 34°23' W 119°30'0 0.1
2017-Sep-15 14:54N 34°23' W 119°30'  

Dump ship's entire track history